sensor_id;sensor_type;location;lat;lon;timestamp;temperature;humidity
57719;DHT22;43561;50.090;18.522;2022-10-17T00:07:55;11.90;99.90
57719;DHT22;43561;50.090;18.522;2022-10-17T00:18:10;11.90;99.90
57719;DHT22;43561;50.090;18.522;2022-10-17T00:28:13;11.70;99.90
57719;DHT22;43561;50.090;18.522;2022-10-17T00:38:15;11.70;99.90
57719;DHT22;43561;50.090;18.522;2022-10-17T00:48:24;11.70;99.90
57719;DHT22;43561;50.090;18.522;2022-10-17T00:58:28;11.40;99.90
57719;DHT22;43561;50.090;18.522;2022-10-17T01:08:35;11.30;99.90
57719;DHT22;43561;50.090;18.522;2022-10-17T01:30:23;11.10;99.90
57719;DHT22;43561;50.090;18.522;2022-10-17T01:40:38;11.00;99.90
57719;DHT22;43561;50.090;18.522;2022-10-17T01:50:50;11.30;99.90
57719;DHT22;43561;50.090;18.522;2022-10-17T02:00:55;11.30;99.90
57719;DHT22;43561;50.090;18.522;2022-10-17T02:11:08;11.30;99.90
57719;DHT22;43561;50.090;18.522;2022-10-17T02:31:30;10.80;99.90
57719;DHT22;43561;50.090;18.522;2022-10-17T02:41:39;10.60;99.90
57719;DHT22;43561;50.090;18.522;2022-10-17T02:51:46;10.60;99.90
57719;DHT22;43561;50.090;18.522;2022-10-17T03:01:50;10.40;99.90
57719;DHT22;43561;50.090;18.522;2022-10-17T03:11:52;10.60;99.90
57719;DHT22;43561;50.090;18.522;2022-10-17T03:21:55;10.30;99.90
57719;DHT22;43561;50.090;18.522;2022-10-17T03:31:58;10.10;99.90
57719;DHT22;43561;50.090;18.522;2022-10-17T03:41:59;10.00;99.90
57719;DHT22;43561;50.090;18.522;2022-10-17T03:52:02;10.00;99.90
57719;DHT22;43561;50.090;18.522;2022-10-17T04:02:07;10.00;99.90
57719;DHT22;43561;50.090;18.522;2022-10-17T04:23:13;9.80;99.90
57719;DHT22;43561;50.090;18.522;2022-10-17T04:33:16;9.80;99.90
57719;DHT22;43561;50.090;18.522;2022-10-17T04:43:18;9.70;99.90
57719;DHT22;43561;50.090;18.522;2022-10-17T04:53:21;9.90;99.90
57719;DHT22;43561;50.090;18.522;2022-10-17T05:03:23;10.00;99.90
57719;DHT22;43561;50.090;18.522;2022-10-17T05:13:25;10.30;99.90
57719;DHT22;43561;50.090;18.522;2022-10-17T05:23:29;10.50;99.90
57719;DHT22;43561;50.090;18.522;2022-10-17T05:33:33;10.50;99.90
57719;DHT22;43561;50.090;18.522;2022-10-17T05:55:22;11.10;99.90
57719;DHT22;43561;50.090;18.522;2022-10-17T06:05:25;11.70;99.90
57719;DHT22;43561;50.090;18.522;2022-10-17T06:15:29;12.50;99.90
57719;DHT22;43561;50.090;18.522;2022-10-17T06:25:37;13.00;99.90
57719;DHT22;43561;50.090;18.522;2022-10-17T06:35:40;13.70;99.90
57719;DHT22;43561;50.090;18.522;2022-10-17T06:45:45;14.70;99.90
57719;DHT22;43561;50.090;18.522;2022-10-17T07:07:42;16.20;99.90
57719;DHT22;43561;50.090;18.522;2022-10-17T07:17:48;16.90;99.90
57719;DHT22;43561;50.090;18.522;2022-10-17T07:27:54;17.30;99.90
57719;DHT22;43561;50.090;18.522;2022-10-17T07:37:57;17.70;99.90
57719;DHT22;43561;50.090;18.522;2022-10-17T07:47:59;18.40;99.90
57719;DHT22;43561;50.090;18.522;2022-10-17T07:58:01;18.90;99.20
57719;DHT22;43561;50.090;18.522;2022-10-17T08:08:06;18.90;98.50
57719;DHT22;43561;50.090;18.522;2022-10-17T08:18:08;19.40;97.00
57719;DHT22;43561;50.090;18.522;2022-10-17T08:28:10;19.70;96.80
57719;DHT22;43561;50.090;18.522;2022-10-17T08:38:11;20.00;94.20
57719;DHT22;43561;50.090;18.522;2022-10-17T08:48:20;20.20;93.50
57719;DHT22;43561;50.090;18.522;2022-10-17T08:58:33;20.60;91.40
57719;DHT22;43561;50.090;18.522;2022-10-17T09:19:06;21.30;86.70
57719;DHT22;43561;50.090;18.522;2022-10-17T09:29:18;21.10;87.30
57719;DHT22;43561;50.090;18.522;2022-10-17T09:39:22;21.60;83.60
57719;DHT22;43561;50.090;18.522;2022-10-17T09:49:33;21.70;84.20
57719;DHT22;43561;50.090;18.522;2022-10-17T09:59:41;21.80;81.40
57719;DHT22;43561;50.090;18.522;2022-10-17T10:09:46;22.10;81.50
57719;DHT22;43561;50.090;18.522;2022-10-17T10:19:50;22.10;79.70
57719;DHT22;43561;50.090;18.522;2022-10-17T10:29:52;22.20;78.50
57719;DHT22;43561;50.090;18.522;2022-10-17T10:40:02;22.10;77.90
57719;DHT22;43561;50.090;18.522;2022-10-17T10:50:36;22.10;80.30
57719;DHT22;43561;50.090;18.522;2022-10-17T11:00:46;22.20;77.90
57719;DHT22;43561;50.090;18.522;2022-10-17T11:32:12;22.30;77.40
57719;DHT22;43561;50.090;18.522;2022-10-17T11:42:26;22.30;78.30
57719;DHT22;43561;50.090;18.522;2022-10-17T11:52:45;22.30;78.20
57719;DHT22;43561;50.090;18.522;2022-10-17T12:13:49;22.20;79.50
57719;DHT22;43561;50.090;18.522;2022-10-17T12:23:52;22.10;76.90
57719;DHT22;43561;50.090;18.522;2022-10-17T12:33:56;22.10;78.50
57719;DHT22;43561;50.090;18.522;2022-10-17T12:43:59;22.10;79.20
57719;DHT22;43561;50.090;18.522;2022-10-17T12:54:11;22.00;77.30
57719;DHT22;43561;50.090;18.522;2022-10-17T13:04:15;21.90;77.70
57719;DHT22;43561;50.090;18.522;2022-10-17T13:14:19;22.00;78.00
57719;DHT22;43561;50.090;18.522;2022-10-17T13:24:36;22.00;79.40
57719;DHT22;43561;50.090;18.522;2022-10-17T13:35:08;22.00;79.90
57719;DHT22;43561;50.090;18.522;2022-10-17T13:45:29;21.90;79.70
57719;DHT22;43561;50.090;18.522;2022-10-17T13:55:32;21.90;79.40
57719;DHT22;43561;50.090;18.522;2022-10-17T14:05:34;21.80;75.80
57719;DHT22;43561;50.090;18.522;2022-10-17T14:15:36;21.70;75.40
57719;DHT22;43561;50.090;18.522;2022-10-17T14:25:39;21.60;77.30
57719;DHT22;43561;50.090;18.522;2022-10-17T14:35:54;21.40;76.40
57719;DHT22;43561;50.090;18.522;2022-10-17T14:45:57;21.10;78.60
57719;DHT22;43561;50.090;18.522;2022-10-17T14:56:02;20.90;78.20
57719;DHT22;43561;50.090;18.522;2022-10-17T15:06:27;20.60;79.40
57719;DHT22;43561;50.090;18.522;2022-10-17T15:16:33;20.40;79.90
57719;DHT22;43561;50.090;18.522;2022-10-17T15:26:36;20.10;81.20
57719;DHT22;43561;50.090;18.522;2022-10-17T15:36:39;19.70;83.40
57719;DHT22;43561;50.090;18.522;2022-10-17T15:46:42;19.50;88.00
57719;DHT22;43561;50.090;18.522;2022-10-17T15:56:52;19.00;89.90
57719;DHT22;43561;50.090;18.522;2022-10-17T16:06:55;18.50;92.20
57719;DHT22;43561;50.090;18.522;2022-10-17T16:17:01;18.20;93.80
57719;DHT22;43561;50.090;18.522;2022-10-17T16:27:02;17.80;96.00
57719;DHT22;43561;50.090;18.522;2022-10-17T16:37:04;17.10;99.90
57719;DHT22;43561;50.090;18.522;2022-10-17T16:47:07;16.90;99.90
57719;DHT22;43561;50.090;18.522;2022-10-17T16:57:09;16.70;99.90
57719;DHT22;43561;50.090;18.522;2022-10-17T17:07:10;16.20;99.90
57719;DHT22;43561;50.090;18.522;2022-10-17T17:17:13;15.80;99.90
57719;DHT22;43561;50.090;18.522;2022-10-17T17:27:34;15.40;99.90
57719;DHT22;43561;50.090;18.522;2022-10-17T17:37:39;15.10;99.90
57719;DHT22;43561;50.090;18.522;2022-10-17T17:47:42;14.80;99.90
57719;DHT22;43561;50.090;18.522;2022-10-17T17:57:44;14.50;99.90
57719;DHT22;43561;50.090;18.522;2022-10-17T18:07:45;14.40;99.90
57719;DHT22;43561;50.090;18.522;2022-10-17T18:17:47;14.20;99.90
57719;DHT22;43561;50.090;18.522;2022-10-17T18:27:54;13.80;99.90
57719;DHT22;43561;50.090;18.522;2022-10-17T18:37:59;13.70;99.90
57719;DHT22;43561;50.090;18.522;2022-10-17T18:48:07;13.50;99.90
57719;DHT22;43561;50.090;18.522;2022-10-17T18:58:09;13.30;99.90
57719;DHT22;43561;50.090;18.522;2022-10-17T19:08:15;13.20;99.90
57719;DHT22;43561;50.090;18.522;2022-10-17T19:18:23;13.20;99.90
57719;DHT22;43561;50.090;18.522;2022-10-17T19:28:24;13.30;99.90
57719;DHT22;43561;50.090;18.522;2022-10-17T19:38:33;13.40;99.90
57719;DHT22;43561;50.090;18.522;2022-10-17T19:48:36;13.40;99.90
57719;DHT22;43561;50.090;18.522;2022-10-17T19:58:39;13.40;99.90
57719;DHT22;43561;50.090;18.522;2022-10-17T20:08:41;13.60;99.90
57719;DHT22;43561;50.090;18.522;2022-10-17T20:18:56;13.10;99.90
57719;DHT22;43561;50.090;18.522;2022-10-17T20:29:03;12.50;99.90
57719;DHT22;43561;50.090;18.522;2022-10-17T20:39:13;12.10;99.90
57719;DHT22;43561;50.090;18.522;2022-10-17T20:49:18;11.90;99.90
57719;DHT22;43561;50.090;18.522;2022-10-17T20:59:20;12.00;99.90
57719;DHT22;43561;50.090;18.522;2022-10-17T21:09:22;12.00;99.90
57719;DHT22;43561;50.090;18.522;2022-10-17T21:19:24;11.70;99.90
57719;DHT22;43561;50.090;18.522;2022-10-17T21:29:28;11.40;99.90
57719;DHT22;43561;50.090;18.522;2022-10-17T21:39:42;11.20;99.90
57719;DHT22;43561;50.090;18.522;2022-10-17T21:49:44;11.00;99.90
57719;DHT22;43561;50.090;18.522;2022-10-17T21:59:47;10.80;99.90
57719;DHT22;43561;50.090;18.522;2022-10-17T22:09:49;10.80;99.90
57719;DHT22;43561;50.090;18.522;2022-10-17T22:19:51;11.10;99.90
57719;DHT22;43561;50.090;18.522;2022-10-17T22:29:53;11.20;99.90
57719;DHT22;43561;50.090;18.522;2022-10-17T22:39:54;10.80;99.90
57719;DHT22;43561;50.090;18.522;2022-10-17T22:49:57;10.60;99.90
57719;DHT22;43561;50.090;18.522;2022-10-17T22:59:58;10.40;99.90
57719;DHT22;43561;50.090;18.522;2022-10-17T23:10:00;10.30;99.90
57719;DHT22;43561;50.090;18.522;2022-10-17T23:20:03;10.20;99.90
57719;DHT22;43561;50.090;18.522;2022-10-17T23:30:06;10.10;99.90
57719;DHT22;43561;50.090;18.522;2022-10-17T23:40:09;10.00;99.90
57719;DHT22;43561;50.090;18.522;2022-10-17T23:50:11;10.00;99.90
